createdAt,value
2023-01-18T00:46:26.944Z,23.57
2023-01-18T00:47:35.769Z,18.35
2023-01-18T00:48:45.684Z,14.80
2023-01-18T00:49:55.422Z,13.20
2023-01-18T00:51:05.699Z,13.10
2023-01-18T00:52:14.656Z,12.95
2023-01-18T00:53:23.382Z,11.90
2023-01-18T00:54:33.400Z,12.25
2023-01-18T00:55:42.720Z,11.37
2023-01-18T00:56:51.766Z,12.65
2023-01-18T00:58:01.093Z,10.80
2023-01-18T00:59:11.754Z,10.63
2023-01-18T01:00:23.738Z,12.25
2023-01-18T01:02:49.014Z,10.45
2023-01-18T01:04:16.866Z,10.80
2023-01-18T01:05:46.363Z,10.73
2023-01-18T01:06:57.043Z,10.63
2023-01-18T01:08:06.411Z,10.62
2023-01-18T01:10:37.742Z,10.88
2023-01-18T01:12:06.905Z,10.02
2023-01-18T01:13:38.229Z,11.22
2023-01-18T01:15:07.958Z,10.90
2023-01-18T01:16:36.189Z,11.75
2023-01-18T01:18:05.167Z,10.35
2023-01-18T01:19:32.539Z,11.08
2023-01-18T01:21:01.041Z,11.97
2023-01-18T01:22:28.220Z,9.83
2023-01-18T01:23:56.044Z,10.27
2023-01-18T01:25:24.546Z,9.38
2023-01-18T01:26:34.230Z,10.52
2023-01-18T01:27:43.897Z,10.62
2023-01-18T01:28:53.646Z,8.93
2023-01-18T01:30:03.998Z,9.03
2023-01-18T01:31:15.736Z,9.75
2023-01-18T01:32:25.852Z,9.90
2023-01-18T01:33:36.001Z,9.90
2023-01-18T01:34:45.142Z,10.25
2023-01-18T01:37:16.756Z,9.60
2023-01-18T01:38:26.104Z,10.45
2023-01-18T01:39:35.934Z,10.45
2023-01-18T01:40:44.862Z,9.02
2023-01-18T01:41:55.316Z,9.33
2023-01-18T01:43:04.942Z,9.40
2023-01-18T01:44:31.437Z,9.93
2023-01-18T01:45:42.041Z,9.28
2023-01-18T01:47:01.852Z,9.73
2023-01-18T01:50:51.563Z,10.83
2023-01-18T01:52:03.804Z,10.47
2023-01-18T01:53:12.442Z,10.20
2023-01-18T01:54:26.855Z,9.48
2023-01-18T01:55:39.427Z,9.63
2023-01-18T01:56:51.753Z,10.37
2023-01-18T01:58:13.540Z,9.48
2023-01-18T01:59:25.044Z,9.68
2023-01-18T02:00:35.763Z,9.17
2023-01-18T02:03:06.719Z,9.50
2023-01-18T02:04:16.421Z,9.57
2023-01-18T02:05:27.075Z,9.10
2023-01-18T02:08:01.691Z,8.85
2023-01-18T02:09:13.900Z,8.98
2023-01-18T02:10:22.906Z,9.03
2023-01-18T02:11:32.693Z,9.02
2023-01-18T02:12:45.261Z,9.15
2023-01-18T02:13:56.682Z,10.03
2023-01-18T02:17:01.436Z,9.10
2023-01-18T02:18:17.963Z,9.60
2023-01-18T02:21:08.372Z,9.38
2023-01-18T02:22:30.068Z,9.68
2023-01-18T02:23:59.115Z,9.73
2023-01-18T02:27:16.083Z,9.42
2023-01-18T02:31:31.794Z,9.50
2023-01-18T02:32:53.849Z,9.22
2023-01-18T02:35:52.084Z,9.43
2023-01-18T02:38:31.614Z,9.25
2023-01-18T02:40:09.583Z,9.87
2023-01-18T02:43:04.028Z,8.65
2023-01-18T02:44:34.838Z,9.43
2023-01-18T02:46:04.541Z,8.45
2023-01-18T02:47:15.879Z,9.45
2023-01-18T02:49:44.174Z,8.82
2023-01-18T02:50:53.884Z,9.30
2023-01-18T02:52:06.613Z,9.72
2023-01-18T02:53:17.697Z,10.20
2023-01-18T02:55:46.456Z,9.20
2023-01-18T02:56:58.222Z,8.97
2023-01-18T02:58:30.973Z,9.00
2023-01-18T02:59:46.900Z,8.75
2023-01-18T03:02:34.198Z,7.37
2023-01-18T03:03:46.893Z,9.63
2023-01-18T03:06:13.790Z,9.02
2023-01-18T03:08:56.065Z,9.20
2023-01-18T03:10:10.873Z,9.17
2023-01-18T03:11:38.964Z,9.46
2023-01-18T03:13:03.980Z,8.72
2023-01-18T03:14:17.182Z,9.57
2023-01-18T03:17:04.882Z,8.30
2023-01-18T03:18:25.695Z,9.17
2023-01-18T03:20:10.125Z,10.60
2023-01-18T03:21:20.374Z,10.05
2023-01-18T03:22:52.047Z,10.25
2023-01-18T03:24:05.082Z,9.17
2023-01-18T03:25:17.930Z,9.45
2023-01-18T03:26:29.223Z,8.80
2023-01-18T03:27:57.472Z,9.20
2023-01-18T03:29:25.294Z,8.43
2023-01-18T03:30:56.094Z,9.38
2023-01-18T03:34:04.192Z,7.82
2023-01-18T03:35:18.282Z,8.70
2023-01-18T03:37:51.763Z,8.97
2023-01-18T03:39:11.396Z,9.75
2023-01-18T03:40:25.833Z,9.85
2023-01-18T03:44:32.076Z,9.73
2023-01-18T03:45:47.065Z,10.50
2023-01-18T03:46:57.681Z,9.37
2023-01-18T03:48:08.672Z,9.38
2023-01-18T03:49:18.112Z,9.70
2023-01-18T03:50:50.278Z,10.83
2023-01-18T03:53:39.653Z,10.00
2023-01-18T03:55:01.352Z,8.75
2023-01-18T03:56:31.394Z,10.47
2023-01-18T03:57:50.535Z,10.75
2023-01-18T04:00:19.625Z,9.95
2023-01-18T04:02:39.314Z,8.00
2023-01-18T04:03:50.136Z,10.90
2023-01-18T04:05:01.235Z,10.28
2023-01-18T04:06:10.536Z,10.23
2023-01-18T04:07:20.438Z,11.28
2023-01-18T04:08:29.482Z,10.32
2023-01-18T04:10:53.695Z,10.63
2023-01-18T04:12:03.414Z,11.02
2023-01-18T04:13:12.393Z,9.47
2023-01-18T04:14:22.188Z,11.22
2023-01-18T04:15:31.895Z,10.43
2023-01-18T04:16:40.818Z,11.13
2023-01-18T04:19:09.004Z,11.38
2023-01-18T04:20:19.640Z,9.75
2023-01-18T04:21:28.641Z,10.80
2023-01-18T04:22:37.857Z,11.22
2023-01-18T04:23:48.916Z,10.35
2023-01-18T04:24:58.836Z,10.48
2023-01-18T04:26:08.008Z,10.22
2023-01-18T04:28:33.281Z,9.35
2023-01-18T04:29:42.975Z,10.60
2023-01-18T04:30:53.156Z,11.38
2023-01-18T04:32:02.387Z,9.75
2023-01-18T04:34:25.981Z,9.77
2023-01-18T04:36:53.079Z,11.98
2023-01-18T04:38:02.681Z,11.15
2023-01-18T04:39:14.035Z,11.28
2023-01-18T04:40:22.991Z,10.17
2023-01-18T04:42:53.012Z,10.42
2023-01-18T04:45:18.133Z,10.28
2023-01-18T04:46:28.431Z,10.70
2023-01-18T04:47:37.396Z,12.10
2023-01-18T04:48:51.736Z,10.80
2023-01-18T04:50:00.894Z,10.35
2023-01-18T04:51:14.209Z,9.20
2023-01-18T04:53:43.620Z,11.25
2023-01-18T04:54:52.246Z,10.32
2023-01-18T04:56:01.850Z,11.83
2023-01-18T04:57:10.961Z,10.92
2023-01-18T04:58:21.217Z,11.48
2023-01-18T04:59:30.847Z,12.10
2023-01-18T05:00:40.118Z,10.58
2023-01-18T05:01:50.060Z,11.72
2023-01-18T05:03:00.633Z,11.55
2023-01-18T05:05:19.438Z,11.80
2023-01-18T05:06:28.929Z,11.45
2023-01-18T05:07:38.492Z,12.25
2023-01-18T05:08:48.215Z,13.80
2023-01-18T05:09:57.511Z,11.10
2023-01-18T05:11:09.663Z,14.00
2023-01-18T05:12:19.272Z,16.07
2023-01-18T05:13:27.816Z,13.80
2023-01-18T05:14:36.399Z,14.52
2023-01-18T05:15:46.120Z,13.83
2023-01-18T05:18:09.546Z,12.65
2023-01-18T05:19:19.131Z,12.48
2023-01-18T05:20:29.455Z,13.17
2023-01-18T05:21:38.471Z,14.30
2023-01-18T05:22:47.471Z,14.47
2023-01-18T05:23:56.729Z,12.35
2023-01-18T05:26:24.410Z,12.67
2023-01-18T05:27:33.987Z,11.17
2023-01-18T05:28:44.430Z,13.72
2023-01-18T05:29:54.159Z,12.20
2023-01-18T05:31:03.828Z,11.85
2023-01-18T05:32:17.224Z,13.60
2023-01-18T05:33:25.890Z,12.05
2023-01-18T05:35:52.258Z,12.32
2023-01-18T05:37:01.198Z,12.00
2023-01-18T05:38:10.678Z,13.05
2023-01-18T05:40:34.564Z,11.38
2023-01-18T05:41:43.903Z,11.55
2023-01-18T05:42:57.357Z,11.65
2023-01-18T05:44:06.331Z,12.53
2023-01-18T05:46:31.762Z,12.60
2023-01-18T05:47:41.668Z,12.80
2023-01-18T05:48:50.656Z,12.15
2023-01-18T05:50:01.119Z,11.07
2023-01-18T05:51:10.940Z,12.40
2023-01-18T05:52:20.629Z,12.13
2023-01-18T05:53:30.218Z,11.70
2023-01-18T05:54:38.747Z,10.70
2023-01-18T05:55:56.393Z,12.20
2023-01-18T05:57:05.521Z,12.38
2023-01-18T05:58:15.027Z,11.38
2023-01-18T06:00:42.093Z,10.95
2023-01-18T12:05:36.179Z,12.73
2023-01-18T12:06:55.253Z,9.16
2023-01-18T12:08:27.441Z,7.17
2023-01-18T12:09:57.204Z,5.32
2023-01-18T12:11:17.651Z,5.05
2023-01-18T12:12:39.805Z,5.70
2023-01-18T12:14:01.231Z,5.45
2023-01-18T12:15:21.253Z,5.20
2023-01-18T12:18:17.934Z,4.75
2023-01-18T12:19:59.384Z,5.52
2023-01-18T12:21:16.650Z,3.90
2023-01-18T12:24:15.385Z,5.90
2023-01-18T12:26:59.807Z,4.87
2023-01-18T12:28:21.046Z,4.65
2023-01-18T12:29:41.429Z,5.88
2023-01-18T12:31:03.277Z,5.90
2023-01-18T12:32:35.633Z,4.77
2023-01-18T12:33:49.026Z,5.52
2023-01-18T12:36:35.290Z,4.73
2023-01-18T12:37:50.431Z,5.85
2023-01-18T12:39:03.294Z,4.47
2023-01-18T12:40:34.198Z,4.97
2023-01-18T12:43:03.661Z,4.48
2023-01-18T12:44:16.609Z,5.07
2023-01-18T12:46:01.016Z,5.57
2023-01-18T12:47:23.410Z,5.50
2023-01-18T12:48:44.777Z,5.55
2023-01-18T12:49:57.431Z,5.50
2023-01-18T12:51:10.398Z,5.08
2023-01-18T12:52:23.065Z,5.98
2023-01-18T12:53:39.148Z,5.60
2023-01-18T12:54:58.721Z,5.20
2023-01-18T12:56:20.088Z,4.38
2023-01-18T12:57:30.241Z,5.83
2023-01-18T12:58:40.713Z,5.73
2023-01-18T12:59:56.527Z,6.33
2023-01-18T13:01:09.625Z,6.15
2023-01-18T13:02:33.634Z,5.70
2023-01-18T13:03:46.725Z,6.07
2023-01-18T13:06:17.592Z,5.90
2023-01-18T13:09:00.031Z,4.25
2023-01-18T13:11:41.271Z,5.10
2023-01-18T13:12:51.518Z,4.60
2023-01-18T13:17:26.312Z,5.15
2023-01-18T13:18:52.768Z,5.17
2023-01-18T13:20:14.686Z,4.52
2023-01-18T13:21:43.285Z,4.05
2023-01-18T13:23:02.125Z,4.50
2023-01-18T13:24:27.013Z,4.17
2023-01-18T13:26:03.950Z,4.40
2023-01-18T13:27:15.774Z,3.98
2023-01-18T13:28:26.035Z,3.85
2023-01-18T13:29:35.300Z,3.70
2023-01-18T13:33:45.055Z,3.73
2023-01-18T13:35:20.201Z,4.73
2023-01-18T13:36:21.502Z,3.65
2023-01-18T13:39:07.630Z,4.15
2023-01-18T13:42:05.320Z,3.95
2023-01-18T13:43:43.102Z,3.30
2023-01-18T13:45:14.663Z,3.48
2023-01-18T13:46:25.908Z,3.80
2023-01-18T13:47:45.396Z,4.65
2023-01-18T13:49:02.149Z,3.62
2023-01-18T19:56:06.515Z,12.40
2023-01-18T19:57:07.020Z,7.38
2023-01-18T19:58:15.560Z,6.05
2023-01-18T19:59:24.857Z,6.67
2023-01-18T20:01:48.915Z,4.75
2023-01-18T20:02:59.558Z,5.70
2023-01-18T20:04:09.141Z,5.02
2023-01-18T20:05:18.444Z,4.58
2023-01-18T20:07:43.896Z,5.75
2023-01-18T20:08:54.421Z,5.58
2023-01-18T20:10:05.190Z,4.65
2023-01-18T20:12:27.975Z,5.27
2023-01-18T20:13:39.861Z,5.43
2023-01-18T20:14:49.652Z,5.73
2023-01-18T20:15:59.730Z,5.42
2023-01-18T20:18:30.081Z,5.55
2023-01-18T20:19:38.575Z,6.00
2023-01-18T20:20:47.924Z,5.97
2023-01-18T20:21:56.456Z,5.15
2023-01-18T20:23:05.646Z,5.95
2023-01-18T20:24:15.804Z,5.65
2023-01-18T20:25:25.444Z,5.85
2023-01-18T20:26:37.837Z,5.70
2023-01-18T20:27:45.057Z,6.73
2023-01-18T20:28:55.291Z,6.70
2023-01-18T20:31:21.952Z,6.07
2023-01-18T20:33:46.623Z,6.30
2023-01-18T20:34:56.442Z,6.03
2023-01-18T20:36:06.936Z,5.88
2023-01-18T20:37:16.103Z,4.97
2023-01-18T20:38:26.165Z,4.65
2023-01-18T20:39:35.778Z,5.55
2023-01-18T20:40:44.535Z,5.07
2023-01-18T20:41:53.039Z,5.90
2023-01-18T20:43:02.432Z,5.98
2023-01-18T20:45:27.626Z,5.40
2023-01-18T20:46:37.555Z,5.12
2023-01-18T20:47:46.586Z,5.67
2023-01-18T20:50:11.126Z,5.68
2023-01-18T20:51:20.282Z,5.48
2023-01-18T20:52:29.101Z,7.00
2023-01-18T20:53:37.947Z,7.37
2023-01-18T20:54:48.572Z,7.45
2023-01-18T20:57:13.529Z,6.50
2023-01-18T20:58:22.238Z,7.42
2023-01-18T20:59:31.485Z,5.92
2023-01-18T21:00:40.543Z,5.50
2023-01-18T21:01:50.794Z,6.22
2023-01-18T21:03:00.221Z,5.30
2023-01-18T21:04:10.764Z,5.75
2023-01-18T21:05:19.372Z,5.30
2023-01-18T21:06:31.062Z,6.05
2023-01-18T21:07:41.870Z,5.58
2023-01-18T21:08:56.292Z,5.52
2023-01-18T21:10:05.866Z,5.75
2023-01-18T21:12:34.900Z,5.95
2023-01-18T21:13:43.846Z,5.90
2023-01-18T21:14:53.406Z,5.42
2023-01-18T21:16:02.678Z,6.13
2023-01-18T21:17:12.340Z,4.90
2023-01-18T21:18:21.592Z,5.25
2023-01-18T21:19:30.431Z,5.47
2023-01-18T21:20:39.692Z,4.73
2023-01-18T21:21:48.308Z,5.37
2023-01-18T21:22:59.009Z,5.43
2023-01-18T21:25:16.459Z,5.65
2023-01-18T21:26:25.982Z,4.72
2023-01-18T21:27:36.024Z,4.37
2023-01-18T21:28:44.860Z,4.62
2023-01-18T21:29:55.264Z,6.00
2023-01-18T21:32:23.373Z,5.53
2023-01-18T21:33:33.633Z,5.90
2023-01-18T21:34:43.721Z,5.10
2023-01-18T21:35:53.771Z,5.35
2023-01-18T21:37:03.598Z,5.45
2023-01-18T21:38:13.502Z,5.15
2023-01-18T21:40:41.303Z,5.47
2023-01-18T21:42:12.418Z,4.80
2023-01-18T21:43:40.692Z,5.40
2023-01-18T21:45:08.113Z,6.32
2023-01-18T21:47:32.725Z,5.48
2023-01-18T21:48:42.222Z,4.55
2023-01-18T21:50:20.009Z,5.17
2023-01-18T21:53:17.107Z,5.35
2023-01-18T21:54:25.863Z,5.12
2023-01-18T21:55:37.554Z,5.40
2023-01-18T21:56:47.022Z,4.55
2023-01-18T21:58:15.704Z,5.07
2023-01-18T21:59:24.784Z,5.13
2023-01-18T22:00:36.344Z,5.18
2023-01-18T22:01:47.964Z,4.78
2023-01-18T22:02:57.195Z,4.95
2023-01-18T22:04:29.020Z,4.93
2023-01-18T22:05:41.008Z,4.92
2023-01-18T22:06:50.682Z,4.73
2023-01-18T22:08:00.221Z,4.30
2023-01-18T22:09:09.201Z,4.90
2023-01-18T22:10:18.763Z,5.52
2023-01-18T22:11:52.316Z,5.62
2023-01-18T22:13:01.628Z,5.55
2023-01-18T22:14:36.035Z,5.75
2023-01-18T22:15:44.521Z,5.10
2023-01-18T22:16:53.411Z,5.42
2023-01-18T22:18:02.459Z,5.45
2023-01-18T22:19:12.113Z,5.03
2023-01-18T22:20:21.431Z,4.63
2023-01-18T22:21:31.967Z,5.10
2023-01-18T22:22:41.653Z,5.20
2023-01-18T22:23:53.928Z,4.57
2023-01-18T22:25:03.692Z,4.90
2023-01-18T22:26:13.119Z,4.73
2023-01-18T22:27:22.092Z,5.43
2023-01-18T22:29:45.703Z,5.23
2023-01-18T22:30:55.567Z,5.02
2023-01-18T22:32:05.294Z,4.42
2023-01-18T22:33:15.748Z,5.07
2023-01-18T22:34:27.528Z,5.30
2023-01-18T22:35:37.158Z,5.38
2023-01-18T22:36:46.180Z,5.07
2023-01-18T22:37:55.374Z,4.95
2023-01-18T22:39:05.002Z,5.50
2023-01-18T22:40:14.584Z,4.90
2023-01-18T22:41:26.711Z,5.28
2023-01-18T22:42:35.719Z,4.67
2023-01-18T22:43:46.412Z,4.82
2023-01-18T22:46:07.698Z,4.70
2023-01-18T22:47:17.467Z,4.82
2023-01-18T22:49:43.182Z,4.95
2023-01-18T22:50:57.871Z,5.28
2023-01-18T22:53:23.748Z,5.07
2023-01-18T22:54:32.261Z,4.92
2023-01-18T22:55:41.349Z,4.82
2023-01-18T22:56:50.654Z,5.30
2023-01-18T22:57:59.562Z,5.08
2023-01-18T22:59:08.529Z,6.15
2023-01-18T23:01:42.221Z,6.75
2023-01-18T23:04:12.642Z,6.70
2023-01-18T23:05:21.849Z,6.50
2023-01-18T23:06:35.068Z,6.20
2023-01-18T23:07:43.726Z,5.57
2023-01-18T23:08:54.318Z,5.57
2023-01-18T23:10:03.631Z,6.02
2023-01-18T23:12:38.019Z,6.22
2023-01-18T23:14:08.378Z,5.87
2023-01-18T23:15:35.254Z,5.30
2023-01-18T23:17:03.305Z,5.82
2023-01-18T23:18:12.227Z,4.82
2023-01-18T23:19:23.816Z,4.72
2023-01-18T23:20:33.922Z,4.20
2023-01-18T23:21:43.478Z,4.40
2023-01-18T23:24:09.087Z,4.33
2023-01-18T23:25:18.310Z,4.63
2023-01-18T23:26:28.436Z,5.05
2023-01-18T23:27:38.084Z,4.15
2023-01-18T23:28:47.291Z,4.50
2023-01-18T23:29:57.112Z,4.45
2023-01-18T23:31:11.035Z,4.15
2023-01-18T23:32:22.735Z,4.60
2023-01-18T23:33:32.305Z,4.50
2023-01-18T23:34:43.720Z,4.23
2023-01-18T23:35:53.278Z,4.37
2023-01-18T23:37:02.381Z,5.22
2023-01-18T23:38:12.035Z,4.17
2023-01-18T23:39:39.582Z,3.68
2023-01-18T23:41:06.459Z,4.05
2023-01-18T23:42:33.297Z,3.48
2023-01-18T23:44:02.242Z,4.15
2023-01-18T23:45:29.807Z,4.22
2023-01-18T23:46:57.312Z,4.33
2023-01-18T23:48:31.053Z,3.80
2023-01-18T23:49:58.657Z,3.95
2023-01-18T23:51:27.873Z,4.38
2023-01-18T23:52:55.601Z,4.63
2023-01-18T23:55:33.445Z,4.93
2023-01-18T23:56:44.002Z,5.38
2023-01-18T23:57:54.328Z,4.55
2023-01-18T23:59:03.140Z,4.80
